Time;durP1;ratioP1;P1;durP2;ratioP2;P2;SDS_P1;SDS_P2;PMS_P1;PMS_P2;Temp;Humidity;BMP_temperature;BMP_pressure;BME280_temperature;BME280_humidity;BME280_pressure;Samples;Min_cycle;Max_cycle;Signal;HPM_P1;HPM_P2
2022/07/18 00:01:04;;;;;;;3.10;1.90;;;25.20;38.80;;;;;;5030082;28;20316;-44
2022/07/18 00:03:30;;;;;;;3.87;2.47;;;25.10;38.60;;;;;;5029521;28;20199;-47
2022/07/18 00:05:56;;;;;;;2.80;2.37;;;25.10;38.70;;;;;;5028368;28;20197;-43
2022/07/18 00:08:21;;;;;;;2.90;2.50;;;25.00;38.80;;;;;;5029547;28;20692;-44
2022/07/18 00:10:47;;;;;;;2.77;2.33;;;25.00;39.60;;;;;;5029906;28;20193;-44
2022/07/18 00:13:12;;;;;;;3.80;2.20;;;25.00;39.90;;;;;;5029149;28;20225;-47
2022/07/18 00:15:38;;;;;;;2.57;2.37;;;25.00;39.70;;;;;;5030165;28;20645;-45
2022/07/18 00:18:04;;;;;;;2.90;2.60;;;24.90;39.70;;;;;;5029518;28;20193;-45
2022/07/18 00:20:30;;;;;;;3.90;2.20;;;24.90;39.60;;;;;;5029710;28;20252;-44
2022/07/18 00:22:56;;;;;;;2.20;2.00;;;24.80;39.60;;;;;;5029301;28;20451;-43
2022/07/18 00:25:22;;;;;;;3.70;2.40;;;24.80;39.80;;;;;;5029925;28;20208;-44
2022/07/18 00:27:48;;;;;;;2.97;2.67;;;24.70;39.90;;;;;;5029423;28;20471;-43
2022/07/18 00:30:13;;;;;;;3.63;2.27;;;24.60;39.90;;;;;;5029547;28;20835;-43
2022/07/18 00:32:39;;;;;;;3.53;2.37;;;24.50;39.80;;;;;;5027715;28;20489;-44
2022/07/18 00:35:06;;;;;;;2.97;2.70;;;24.50;40.00;;;;;;5031013;28;20193;-43
2022/07/18 00:37:31;;;;;;;3.17;2.80;;;24.40;40.20;;;;;;5032571;28;21059;-44
2022/07/18 00:39:57;;;;;;;5.27;2.77;;;24.40;40.30;;;;;;5033053;28;20424;-43
2022/07/18 00:42:22;;;;;;;2.30;2.17;;;24.30;40.20;;;;;;5033109;28;20649;-43
2022/07/18 00:44:53;;;;;;;3.60;2.27;;;24.30;40.20;;;;;;5033059;28;20201;-45
2022/07/18 00:47:19;;;;;;;4.70;2.47;;;24.20;40.60;;;;;;5032926;28;20712;-43
2022/07/18 00:49:45;;;;;;;2.30;2.10;;;24.10;40.00;;;;;;5032815;28;20520;-43
2022/07/18 00:52:10;;;;;;;2.50;2.30;;;24.10;40.20;;;;;;5032874;28;20299;-43
2022/07/18 00:54:36;;;;;;;3.10;2.23;;;24.10;40.10;;;;;;5032770;28;20204;-42
2022/07/18 00:57:01;;;;;;;3.00;2.40;;;24.00;40.00;;;;;;5032841;28;20185;-43
2022/07/18 01:01:42;;;;;;;2.33;2.03;;;23.90;40.10;;;;;;5031016;28;20196;-43
2022/07/18 01:02:14;;;;;;;4.60;2.47;;;23.90;40.40;;;;;;5032957;28;20616;-43
2022/07/18 01:04:39;;;;;;;5.77;2.57;;;23.80;40.80;;;;;;5032425;28;20448;-43
2022/07/18 01:07:05;;;;;;;2.13;1.87;;;23.80;41.00;;;;;;5033047;28;20200;-43
2022/07/18 01:09:32;;;;;;;2.97;2.30;;;23.70;41.10;;;;;;5032258;28;20292;-44
2022/07/18 01:11:58;;;;;;;2.57;2.37;;;23.70;41.10;;;;;;5032507;28;20217;-43
2022/07/18 01:14:24;;;;;;;2.70;2.40;;;23.60;41.10;;;;;;5031893;28;21298;-45
2022/07/18 01:16:50;;;;;;;2.50;2.23;;;23.60;41.00;;;;;;5032957;28;20434;-43
2022/07/18 01:19:15;;;;;;;1.90;1.80;;;23.50;40.20;;;;;;5032212;28;20428;-43
2022/07/18 01:21:41;;;;;;;3.30;2.20;;;23.40;39.70;;;;;;5032573;28;20210;-43
2022/07/18 01:24:07;;;;;;;2.30;2.10;;;23.30;39.80;;;;;;5032140;28;20192;-44
2022/07/18 01:26:33;;;;;;;2.37;1.93;;;23.30;39.90;;;;;;5030918;28;20265;-43
2022/07/18 01:28:59;;;;;;;2.70;1.83;;;23.20;40.40;;;;;;5031793;28;20308;-45
2022/07/18 01:31:25;;;;;;;2.03;1.83;;;23.20;40.50;;;;;;5031985;28;20896;-43
2022/07/18 01:33:54;;;;;;;3.40;2.00;;;23.20;40.80;;;;;;5031756;28;20209;-43
2022/07/18 01:36:20;;;;;;;4.13;2.07;;;23.20;41.20;;;;;;5032606;28;20229;-43
2022/07/18 01:38:45;;;;;;;2.10;1.90;;;23.10;41.10;;;;;;5031734;28;20435;-42
2022/07/18 01:41:11;;;;;;;2.03;1.57;;;23.10;41.00;;;;;;5031858;28;20219;-44
2022/07/18 01:43:41;;;;;;;2.07;1.83;;;23.10;40.90;;;;;;5031865;28;20277;-43
2022/07/18 01:46:11;;;;;;;2.53;1.90;;;23.10;41.00;;;;;;5025736;28;20324;-43
2022/07/18 01:48:38;;;;;;;2.33;1.93;;;23.00;40.90;;;;;;5031759;28;20433;-43
2022/07/18 01:51:05;;;;;;;2.43;1.70;;;23.00;41.10;;;;;;5031684;28;20550;-44
2022/07/18 01:53:30;;;;;;;2.70;1.83;;;22.90;41.20;;;;;;5029527;28;20526;-43
2022/07/18 01:55:56;;;;;;;2.27;2.13;;;22.70;41.60;;;;;;5032155;28;20895;-43
2022/07/18 01:58:21;;;;;;;2.30;2.10;;;22.60;41.80;;;;;;5031558;28;20224;-43
2022/07/18 02:00:47;;;;;;;3.53;2.50;;;22.60;41.80;;;;;;5031570;28;20193;-45
2022/07/18 02:03:12;;;;;;;2.43;2.23;;;22.60;41.70;;;;;;5031113;28;20197;-43
2022/07/18 02:05:38;;;;;;;2.40;2.03;;;22.60;41.60;;;;;;5032041;28;20197;-43
2022/07/18 02:08:04;;;;;;;2.80;2.00;;;22.60;41.70;;;;;;5031176;28;20304;-43
2022/07/18 02:10:30;;;;;;;3.47;2.47;;;22.60;41.80;;;;;;5031379;28;20203;-43
2022/07/18 02:12:56;;;;;;;2.80;2.60;;;22.60;41.90;;;;;;5031063;28;20982;-45
2022/07/18 02:15:22;;;;;;;3.53;2.00;;;22.50;42.20;;;;;;5031792;28;20700;-43
2022/07/18 02:17:47;;;;;;;2.47;2.23;;;22.40;42.50;;;;;;5030994;28;20689;-42
2022/07/18 02:20:14;;;;;;;2.43;2.23;;;22.40;42.60;;;;;;5029501;28;20513;-43
2022/07/18 02:22:40;;;;;;;2.70;1.73;;;22.40;43.10;;;;;;5031005;28;20652;-43
2022/07/18 02:25:06;;;;;;;2.97;2.13;;;22.50;42.60;;;;;;5031730;28;20424;-43
2022/07/18 02:27:32;;;;;;;3.43;2.50;;;22.40;42.40;;;;;;5030808;28;20420;-44
2022/07/18 02:29:58;;;;;;;3.37;2.20;;;22.50;42.50;;;;;;5030818;28;20486;-43
2022/07/18 02:32:23;;;;;;;2.23;2.03;;;22.50;42.60;;;;;;5031084;28;20253;-44
2022/07/18 02:34:49;;;;;;;3.73;2.10;;;22.40;42.60;;;;;;5031242;28;20542;-43
2022/07/18 02:37:15;;;;;;;2.97;1.90;;;22.40;42.60;;;;;;5030832;28;20263;-43
2022/07/18 02:39:41;;;;;;;2.80;2.60;;;22.40;42.60;;;;;;5030508;28;20486;-43
2022/07/18 02:42:07;;;;;;;2.30;2.10;;;22.30;42.80;;;;;;5031354;28;20428;-43
2022/07/18 02:44:34;;;;;;;3.00;2.17;;;22.20;43.00;;;;;;5026108;28;20210;-43
2022/07/18 02:47:00;;;;;;;2.23;2.07;;;22.20;43.40;;;;;;5027160;28;20435;-44
2022/07/18 02:49:26;;;;;;;4.83;2.50;;;22.10;43.40;;;;;;5030627;28;20478;-46
2022/07/18 02:51:57;;;;;;;3.10;2.03;;;22.10;43.40;;;;;;5030473;28;20583;-43
2022/07/18 02:54:24;;;;;;;2.20;1.93;;;22.10;43.40;;;;;;5030314;28;20255;-45
2022/07/18 02:56:49;;;;;;;3.03;2.10;;;22.00;43.50;;;;;;5030943;28;20503;-44
2022/07/18 02:59:15;;;;;;;2.10;1.80;;;22.00;43.40;;;;;;5029954;28;20539;-43
2022/07/18 03:01:41;;;;;;;3.07;2.03;;;22.00;43.60;;;;;;5030415;28;20204;-43
2022/07/18 03:04:06;;;;;;;2.60;2.40;;;21.90;44.00;;;;;;5030222;28;20272;-43
2022/07/18 03:06:32;;;;;;;2.90;2.17;;;21.80;44.00;;;;;;5030585;28;20197;-43
2022/07/18 03:08:57;;;;;;;2.50;2.30;;;21.70;44.10;;;;;;5030199;28;20185;-43
2022/07/18 03:11:23;;;;;;;2.60;2.23;;;21.50;44.50;;;;;;5030296;28;20196;-43
2022/07/18 03:13:49;;;;;;;2.43;2.23;;;21.40;44.80;;;;;;5028464;28;20699;-43
2022/07/18 03:16:14;;;;;;;3.03;1.80;;;21.40;44.90;;;;;;5030543;28;20228;-44
2022/07/18 03:18:40;;;;;;;5.00;2.27;;;21.40;44.90;;;;;;5029937;28;20642;-44
2022/07/18 03:21:05;;;;;;;3.87;2.30;;;21.40;45.50;;;;;;5030323;28;20197;-43
2022/07/18 03:23:31;;;;;;;3.30;2.13;;;21.40;44.90;;;;;;5029736;28;20287;-44
2022/07/18 03:25:57;;;;;;;2.40;2.10;;;21.40;44.70;;;;;;5030384;28;20646;-43
2022/07/18 03:28:22;;;;;;;2.60;2.40;;;21.40;44.70;;;;;;5029854;28;20276;-43
2022/07/18 03:30:48;;;;;;;2.00;1.90;;;21.40;44.70;;;;;;5030120;28;20197;-43
2022/07/18 03:33:14;;;;;;;3.90;3.10;;;21.30;44.80;;;;;;5029756;28;20252;-43
2022/07/18 03:35:39;;;;;;;2.47;2.27;;;21.40;44.90;;;;;;5030548;28;20235;-42
2022/07/18 03:38:05;;;;;;;3.07;2.80;;;21.40;44.90;;;;;;5029809;28;20283;-43
2022/07/18 03:40:31;;;;;;;5.03;2.40;;;21.30;45.00;;;;;;5028235;28;20276;-44
2022/07/18 03:42:56;;;;;;;3.30;2.67;;;21.20;45.10;;;;;;5029975;28;20708;-44
2022/07/18 03:45:22;;;;;;;2.37;2.17;;;21.20;45.40;;;;;;5026655;28;20219;-43
2022/07/18 03:47:47;;;;;;;2.53;2.30;;;21.10;45.60;;;;;;5029842;28;20239;-43
2022/07/18 03:50:13;;;;;;;8.20;2.50;;;21.00;45.80;;;;;;5029922;28;20192;-43
2022/07/18 03:52:39;;;;;;;2.93;2.43;;;21.00;45.80;;;;;;5029475;28;20311;-43
2022/07/18 03:55:05;;;;;;;2.50;2.30;;;21.00;45.90;;;;;;5030234;28;20185;-43
2022/07/18 03:57:30;;;;;;;4.03;2.50;;;20.90;46.10;;;;;;5029702;28;20231;-43
2022/07/18 03:59:56;;;;;;;2.70;2.50;;;20.80;46.00;;;;;;5029925;28;20511;-44
2022/07/18 04:02:22;;;;;;;2.60;2.40;;;20.90;46.80;;;;;;5030066;28;20254;-43
2022/07/18 04:04:47;;;;;;;3.20;2.67;;;20.80;46.20;;;;;;5029828;28;20276;-43
2022/07/18 04:07:13;;;;;;;2.43;2.23;;;20.70;46.20;;;;;;5028783;28;20702;-45
2022/07/18 04:09:38;;;;;;;3.30;2.13;;;20.70;46.40;;;;;;5029634;28;20721;-43
2022/07/18 04:12:04;;;;;;;2.73;2.53;;;20.60;46.60;;;;;;5033761;28;20278;-42
2022/07/18 04:14:30;;;;;;;2.47;2.27;;;20.40;46.90;;;;;;5033514;28;20216;-43
2022/07/18 04:16:55;;;;;;;3.47;2.53;;;20.30;47.30;;;;;;5034141;28;20563;-43
2022/07/18 04:19:23;;;;;;;2.40;2.20;;;20.10;47.60;;;;;;5033237;28;20207;-43
2022/07/18 04:21:48;;;;;;;3.83;2.40;;;20.00;47.90;;;;;;5033364;28;20672;-42
2022/07/18 04:24:14;;;;;;;2.33;2.13;;;19.80;48.20;;;;;;5033391;28;20424;-43
2022/07/18 04:26:39;;;;;;;5.23;2.20;;;19.60;48.70;;;;;;5033815;28;20253;-43
2022/07/18 04:29:05;;;;;;;2.73;2.30;;;19.30;49.20;;;;;;5033248;28;20197;-45
2022/07/18 04:31:31;;;;;;;2.90;2.70;;;19.20;49.70;;;;;;5032946;28;20703;-43
2022/07/18 04:33:56;;;;;;;2.90;2.60;;;18.90;50.10;;;;;;5032251;28;20318;-43
2022/07/18 04:36:22;;;;;;;2.90;2.60;;;18.70;50.60;;;;;;5032681;28;20225;-43
2022/07/18 04:38:47;;;;;;;3.27;2.97;;;18.70;50.90;;;;;;5032771;28;20606;-43
2022/07/18 04:41:13;;;;;;;3.80;2.93;;;18.60;51.20;;;;;;5033069;28;20648;-43
2022/07/18 04:43:39;;;;;;;2.50;2.30;;;18.60;51.50;;;;;;5032821;28;20201;-43
2022/07/18 04:46:04;;;;;;;3.87;2.20;;;18.50;51.70;;;;;;5026681;28;20190;-42
2022/07/18 04:48:30;;;;;;;5.17;2.67;;;18.70;51.50;;;;;;5032534;28;20683;-43
2022/07/18 04:50:56;;;;;;;2.73;2.10;;;18.90;51.50;;;;;;5032757;28;20235;-43
2022/07/18 04:53:21;;;;;;;4.00;3.00;;;18.80;51.60;;;;;;5032439;28;20255;-42
2022/07/18 04:55:47;;;;;;;4.60;3.30;;;19.00;51.80;;;;;;5033244;28;20193;-43
2022/07/18 04:58:12;;;;;;;5.50;3.70;;;19.10;51.10;;;;;;5032589;28;20231;-46
2022/07/18 05:00:38;;;;;;;4.87;2.60;;;19.00;51.30;;;;;;5032711;28;20189;-43
2022/07/18 05:03:04;;;;;;;3.37;2.77;;;19.00;51.00;;;;;;5030771;28;20186;-44
2022/07/18 05:05:29;;;;;;;2.80;2.60;;;19.10;50.80;;;;;;5033016;28;20213;-44
2022/07/18 05:07:55;;;;;;;2.90;2.70;;;19.20;50.50;;;;;;5032609;28;20840;-43
2022/07/18 05:10:22;;;;;;;4.30;2.60;;;19.40;50.20;;;;;;5032353;28;20225;-43
2022/07/18 05:12:50;;;;;;;2.97;2.47;;;19.50;49.60;;;;;;5032157;28;20229;-43
2022/07/18 05:15:18;;;;;;;5.97;2.63;;;19.60;49.00;;;;;;5032897;28;20430;-42
2022/07/18 05:17:44;;;;;;;2.53;2.20;;;19.40;49.20;;;;;;5032098;28;20488;-43
2022/07/18 05:20:14;;;;;;;3.50;2.50;;;19.50;49.80;;;;;;5032024;28;20833;-43
2022/07/18 05:22:40;;;;;;;3.47;2.80;;;19.60;49.60;;;;;;5032005;28;20467;-44
2022/07/18 05:25:07;;;;;;;3.90;2.30;;;19.70;49.00;;;;;;5032771;28;20460;-43
2022/07/18 05:27:33;;;;;;;3.13;2.60;;;19.50;49.00;;;;;;5031930;28;20201;-42
2022/07/18 05:29:59;;;;;;;3.00;2.30;;;19.30;49.50;;;;;;5030350;28;20527;-43
2022/07/18 05:32:25;;;;;;;3.87;2.50;;;19.40;49.40;;;;;;5032025;28;20563;-42
2022/07/18 05:34:51;;;;;;;3.13;2.40;;;19.40;49.20;;;;;;5032434;28;20284;-43
2022/07/18 05:37:17;;;;;;;7.90;2.40;;;19.70;48.90;;;;;;5032255;28;20539;-44
2022/07/18 05:39:42;;;;;;;4.67;2.47;;;19.80;48.30;;;;;;5031477;28;20220;-43
2022/07/18 05:42:08;;;;;;;4.03;2.33;;;20.10;47.50;;;;;;5032262;28;20193;-43
2022/07/18 05:44:33;;;;;;;4.63;3.40;;;20.20;47.50;;;;;;5027434;28;20201;-43
2022/07/18 05:46:59;;;;;;;2.80;2.20;;;20.30;47.30;;;;;;5029695;28;20203;-43
2022/07/18 05:49:25;;;;;;;3.00;2.20;;;20.60;47.00;;;;;;5030935;28;20262;-43
2022/07/18 05:51:50;;;;;;;3.00;2.50;;;20.90;46.30;;;;;;5031988;28;20216;-43
2022/07/18 05:54:18;;;;;;;2.70;2.10;;;21.10;45.80;;;;;;5031603;28;20221;-44
2022/07/18 05:56:48;;;;;;;2.07;1.97;;;20.90;45.40;;;;;;5030428;28;20201;-43
2022/07/18 05:59:14;;;;;;;2.70;1.70;;;20.60;46.00;;;;;;5031522;28;20496;-44
2022/07/18 06:01:40;;;;;;;2.33;2.10;;;20.60;46.50;;;;;;5031281;28;20423;-43
2022/07/18 06:04:05;;;;;;;2.60;2.40;;;20.90;46.40;;;;;;5031585;28;20428;-42
2022/07/18 06:06:31;;;;;;;2.67;2.30;;;21.20;45.50;;;;;;5031798;28;20189;-46
2022/07/18 06:08:57;;;;;;;2.80;2.50;;;21.30;44.80;;;;;;5031094;28;20189;-43
2022/07/18 06:11:23;;;;;;;3.27;2.40;;;21.50;44.40;;;;;;5031275;28;20189;-44
2022/07/18 06:13:49;;;;;;;3.30;2.37;;;21.80;44.10;;;;;;5031071;28;20271;-43
2022/07/18 06:16:14;;;;;;;5.83;2.20;;;21.90;43.50;;;;;;5031608;28;20429;-44
2022/07/18 06:18:40;;;;;;;2.53;2.33;;;22.00;44.30;;;;;;5030860;28;20204;-44
2022/07/18 06:21:06;;;;;;;5.87;2.40;;;22.00;43.50;;;;;;5031328;28;20563;-43
2022/07/18 06:23:32;;;;;;;3.70;2.30;;;22.20;43.50;;;;;;5029506;28;20197;-44
2022/07/18 06:25:58;;;;;;;2.57;2.37;;;22.40;42.90;;;;;;5031450;28;20439;-44
2022/07/18 06:28:25;;;;;;;4.33;2.50;;;22.40;42.90;;;;;;5030602;28;20193;-47
2022/07/18 06:30:51;;;;;;;2.40;2.20;;;22.70;42.50;;;;;;5031056;28;20461;-44
2022/07/18 06:33:17;;;;;;;2.23;2.00;;;23.00;42.20;;;;;;5030183;28;21071;-44
2022/07/18 06:35:43;;;;;;;4.70;2.60;;;23.10;41.80;;;;;;5031340;28;20507;-46
2022/07/18 06:38:08;;;;;;;2.60;2.40;;;23.10;41.90;;;;;;5030488;28;20236;-45
2022/07/18 06:40:34;;;;;;;2.87;2.47;;;23.10;42.40;;;;;;5030817;28;20454;-44
2022/07/18 06:43:00;;;;;;;5.43;3.07;;;23.20;42.40;;;;;;5030706;28;20197;-47
2022/07/18 06:45:25;;;;;;;3.20;2.90;;;23.50;41.90;;;;;;5024321;28;20338;-44
2022/07/18 06:47:51;;;;;;;3.67;3.00;;;23.70;41.50;;;;;;5030425;28;20235;-46
2022/07/18 06:50:17;;;;;;;2.90;2.70;;;24.10;41.20;;;;;;5028923;28;20193;-47
2022/07/18 06:52:44;;;;;;;6.43;2.80;;;24.30;40.50;;;;;;5030471;28;20279;-44
2022/07/18 06:55:11;;;;;;;4.03;2.67;;;24.30;40.20;;;;;;5031031;28;20420;-46
2022/07/18 06:57:37;;;;;;;7.83;3.00;;;24.50;40.30;;;;;;5030633;28;20458;-43
2022/07/18 07:00:05;;;;;;;5.17;2.73;;;24.70;39.70;;;;;;5030415;28;20432;-43
2022/07/18 07:02:30;;;;;;;2.47;2.27;;;24.90;39.70;;;;;;5030259;28;20430;-43
2022/07/18 07:04:56;;;;;;;3.87;2.60;;;25.20;39.00;;;;;;5030766;28;20424;-43
2022/07/18 07:07:21;;;;;;;2.70;2.40;;;25.30;38.50;;;;;;5030815;28;20220;-44
2022/07/18 07:09:47;;;;;;;3.53;3.00;;;25.70;37.90;;;;;;5029836;28;20256;-43
2022/07/18 07:12:13;;;;;;;3.50;3.20;;;26.00;37.10;;;;;;5030835;28;20309;-44
2022/07/18 07:14:38;;;;;;;5.30;2.80;;;26.10;36.60;;;;;;5030376;28;20199;-45
2022/07/18 07:17:04;;;;;;;3.23;2.93;;;26.40;36.30;;;;;;5028844;28;20186;-48
2022/07/18 07:19:30;;;;;;;3.33;2.83;;;26.60;36.20;;;;;;5029637;28;20621;-47
2022/07/18 07:21:56;;;;;;;4.10;2.50;;;26.90;35.40;;;;;;5030611;28;20450;-44
2022/07/18 07:24:22;;;;;;;3.70;3.40;;;27.10;35.30;;;;;;5029933;28;20316;-47
2022/07/18 07:26:47;;;;;;;3.30;3.00;;;27.20;35.10;;;;;;5030658;28;20191;-46
2022/07/18 07:29:14;;;;;;;4.33;3.00;;;27.30;34.90;;;;;;5029321;28;20276;-46
2022/07/18 07:31:41;;;;;;;3.67;3.33;;;27.50;34.50;;;;;;5030350;28;20205;-46
2022/07/18 07:34:06;;;;;;;3.10;2.90;;;27.60;33.90;;;;;;5030065;28;20498;-47
2022/07/18 07:36:32;;;;;;;4.07;2.67;;;27.80;34.10;;;;;;5030435;28;20463;-44
2022/07/18 07:38:58;;;;;;;4.13;3.80;;;27.90;33.70;;;;;;5029504;28;20618;-44
2022/07/18 07:41:23;;;;;;;5.13;3.07;;;28.00;33.30;;;;;;5029954;28;20268;-44
2022/07/18 07:43:49;;;;;;;2.73;2.53;;;28.20;33.30;;;;;;5029856;28;20189;-44
2022/07/18 07:46:15;;;;;;;3.60;3.30;;;28.30;32.70;;;;;;5029997;28;20189;-47
2022/07/18 07:48:40;;;;;;;5.67;3.43;;;28.50;32.70;;;;;;5036118;28;20258;-44
2022/07/18 07:51:06;;;;;;;3.33;3.03;;;28.70;32.80;;;;;;5036542;28;20197;-47
2022/07/18 07:53:31;;;;;;;3.10;2.80;;;28.90;32.70;;;;;;5036142;28;20290;-46
2022/07/18 07:55:58;;;;;;;3.03;2.83;;;29.10;33.40;;;;;;5037024;28;20204;-47
2022/07/18 07:58:23;;;;;;;3.17;2.70;;;29.40;32.70;;;;;;5035902;28;20192;-43
2022/07/18 08:00:49;;;;;;;3.87;2.40;;;29.70;31.90;;;;;;5036314;28;20427;-44
2022/07/18 08:03:14;;;;;;;4.30;3.10;;;30.00;31.80;;;;;;5036196;28;20659;-46
2022/07/18 08:05:48;;;;;;;4.20;3.20;;;30.20;32.00;;;;;;5036721;28;20350;-44
2022/07/18 08:08:15;;;;;;;3.70;3.40;;;30.40;31.70;;;;;;5035824;28;20582;-44
2022/07/18 08:10:41;;;;;;;4.07;3.67;;;30.70;31.00;;;;;;5034832;28;20423;-44
2022/07/18 08:13:07;;;;;;;6.13;2.90;;;30.90;30.60;;;;;;5036128;28;20487;-45
2022/07/18 08:15:33;;;;;;;3.67;3.37;;;31.10;30.80;;;;;;5036591;28;20416;-43
2022/07/18 08:17:58;;;;;;;3.13;2.90;;;31.20;31.10;;;;;;5035746;28;20832;-44
2022/07/18 08:20:24;;;;;;;4.13;3.30;;;31.10;30.10;;;;;;5036236;28;20200;-44
2022/07/18 08:23:01;;;;;;;3.33;3.00;;;31.20;29.70;;;;;;5036034;28;20235;-46
2022/07/18 08:25:29;;;;;;;3.50;2.80;;;31.40;29.20;;;;;;5036451;28;20227;-47
2022/07/18 08:27:55;;;;;;;3.80;2.93;;;31.50;29.00;;;;;;5036125;28;20467;-45
2022/07/18 08:30:22;;;;;;;3.13;2.93;;;31.60;29.00;;;;;;5036071;28;20424;-46
2022/07/18 08:32:48;;;;;;;4.63;2.83;;;31.80;28.70;;;;;;5035867;28;20594;-44
2022/07/18 08:35:14;;;;;;;3.00;2.80;;;31.90;28.60;;;;;;5036341;28;20510;-45
2022/07/18 08:37:40;;;;;;;4.10;3.03;;;32.00;28.30;;;;;;5034396;28;21022;-45
2022/07/18 08:40:07;;;;;;;5.93;3.40;;;32.20;28.30;;;;;;5036280;28;20219;-44
2022/07/18 08:42:34;;;;;;;3.50;2.90;;;32.20;28.00;;;;;;5035837;28;20419;-43
2022/07/18 08:45:02;;;;;;;3.00;2.80;;;32.30;28.20;;;;;;5029157;28;20914;-43
2022/07/18 08:47:31;;;;;;;4.53;2.17;;;32.60;28.20;;;;;;5035878;28;20481;-44
2022/07/18 08:49:57;;;;;;;2.23;2.13;;;32.80;26.00;;;;;;5035872;28;20448;-44
2022/07/18 08:52:24;;;;;;;2.23;2.13;;;33.10;25.90;;;;;;5036072;28;20487;-45
2022/07/18 08:54:50;;;;;;;3.00;2.70;;;33.30;26.00;;;;;;5035901;28;20427;-44
2022/07/18 08:57:17;;;;;;;2.80;2.47;;;33.50;24.80;;;;;;5032537;28;20467;-44
2022/07/18 08:59:43;;;;;;;2.93;2.37;;;33.60;24.60;;;;;;5032269;28;20657;-44
2022/07/18 09:02:08;;;;;;;2.30;2.10;;;33.80;24.90;;;;;;5033219;28;20432;-44
2022/07/18 09:04:42;;;;;;;3.13;2.23;;;33.90;23.80;;;;;;5030871;28;20216;-44
2022/07/18 09:07:09;;;;;;;3.63;2.70;;;34.10;24.20;;;;;;5033186;28;20205;-44
2022/07/18 09:09:36;;;;;;;2.80;2.60;;;34.30;24.90;;;;;;5032130;28;20432;-43
2022/07/18 09:12:07;;;;;;;3.17;2.60;;;34.40;24.50;;;;;;5032855;28;20490;-44
2022/07/18 09:14:32;;;;;;;3.90;2.60;;;34.50;24.50;;;;;;5032254;28;20519;-44
2022/07/18 09:17:14;;;;;;;2.87;2.67;;;34.50;24.30;;;;;;5032764;28;20902;-44
2022/07/18 09:20:00;;;;;;;2.43;2.23;;;34.70;24.10;;;;;;5031828;28;20649;-44
2022/07/18 09:22:33;;;;;;;3.20;2.77;;;34.80;24.70;;;;;;5032499;28;20439;-46
2022/07/18 09:25:07;;;;;;;2.67;2.47;;;34.90;24.70;;;;;;5032237;28;20509;-45
2022/07/18 09:27:37;;;;;;;2.37;2.27;;;35.00;24.50;;;;;;5031603;28;20447;-45
2022/07/18 09:30:17;;;;;;;2.47;2.27;;;35.10;23.70;;;;;;5031951;28;20428;-45
2022/07/18 09:32:45;;;;;;;4.10;2.33;;;35.40;22.70;;;;;;5031168;28;20487;-44
2022/07/18 09:35:17;;;;;;;3.20;2.07;;;35.60;22.90;;;;;;5032486;28;20428;-45
2022/07/18 09:38:10;;;;;;;3.03;2.60;;;35.80;22.30;;;;;;5031469;28;20479;-44
2022/07/18 09:40:38;;;;;;;3.03;2.43;;;35.90;22.10;;;;;;5032020;28;20432;-45
2022/07/18 09:43:13;;;;;;;2.70;2.50;;;36.10;22.40;;;;;;5031872;28;20793;-44
2022/07/18 09:45:49;;;;;;;2.37;2.27;;;36.30;21.90;;;;;;5025562;28;20450;-44
2022/07/18 09:48:20;;;;;;;5.00;2.67;;;36.40;21.30;;;;;;5031811;28;20427;-44
2022/07/18 09:50:49;;;;;;;2.00;1.90;;;36.50;21.20;;;;;;5032482;28;20439;-44
2022/07/18 09:53:16;;;;;;;2.80;2.00;;;36.60;21.30;;;;;;5031665;28;20483;-45
2022/07/18 09:55:47;;;;;;;2.20;2.07;;;36.70;20.80;;;;;;5032215;28;20431;-44
2022/07/18 09:58:15;;;;;;;3.30;2.30;;;36.80;20.80;;;;;;5029666;28;20446;-44
2022/07/18 10:00:41;;;;;;;3.30;2.07;;;36.90;20.20;;;;;;5031580;28;20478;-44
2022/07/18 10:03:08;;;;;;;3.13;1.93;;;37.00;19.50;;;;;;5031436;28;20554;-46
2022/07/18 10:05:36;;;;;;;2.30;2.10;;;37.10;19.60;;;;;;5031935;28;20924;-45
2022/07/18 10:08:05;;;;;;;2.00;1.90;;;37.30;19.60;;;;;;5030376;28;20424;-44
2022/07/18 10:10:31;;;;;;;3.40;2.43;;;37.30;19.70;;;;;;5031429;28;21014;-45
2022/07/18 10:12:59;;;;;;;2.10;2.00;;;37.50;19.90;;;;;;5031212;28;20491;-45
2022/07/18 10:15:27;;;;;;;2.50;2.30;;;37.30;19.50;;;;;;5031880;28;21022;-45
2022/07/18 10:17:53;;;;;;;2.00;1.90;;;37.50;19.00;;;;;;5030813;28;20514;-44
2022/07/18 10:20:45;;;;;;;2.97;2.70;;;37.60;19.00;;;;;;5031102;28;20486;-45
2022/07/18 10:23:24;;;;;;;2.40;2.20;;;37.90;19.30;;;;;;5030766;28;20530;-45
2022/07/18 10:26:05;;;;;;;2.10;2.00;;;37.80;18.60;;;;;;5029908;28;20435;-45
2022/07/18 10:28:31;;;;;;;2.67;2.43;;;37.70;18.50;;;;;;5031013;28;20946;-47
2022/07/18 10:31:13;;;;;;;2.10;2.00;;;36.80;18.90;;;;;;5030673;28;20489;-46
2022/07/18 10:33:49;;;;;;;4.53;2.20;;;37.20;19.10;;;;;;5030855;28;20236;-46
2022/07/18 10:36:15;;;;;;;1.90;1.80;;;37.60;19.00;;;;;;5031232;28;20824;-45
2022/07/18 10:39:07;;;;;;;2.20;2.10;;;37.90;19.10;;;;;;5030509;28;20424;-45
2022/07/18 10:41:39;;;;;;;1.77;1.67;;;38.30;18.70;;;;;;5031109;28;20197;-45
2022/07/18 10:44:23;;;;;;;2.70;2.50;;;38.30;19.00;;;;;;5030340;28;20431;-47
2022/07/18 10:47:11;;;;;;;2.33;2.00;;;38.50;18.40;;;;;;5026651;28;20427;-48
2022/07/18 10:49:49;;;;;;;2.10;2.00;;;38.60;18.50;;;;;;5030135;28;20969;-46
2022/07/18 10:52:26;;;;;;;2.73;2.53;;;38.70;18.70;;;;;;5029583;28;20489;-46
2022/07/18 10:55:16;;;;;;;2.10;2.00;;;39.00;18.80;;;;;;5030825;28;20430;-46
2022/07/18 10:57:42;;;;;;;3.40;2.47;;;39.20;18.30;;;;;;5030488;28;20442;-45
2022/07/18 11:00:13;;;;;;;2.10;2.00;;;39.20;18.20;;;;;;5030702;28;20459;-46
2022/07/18 11:02:41;;;;;;;2.60;2.40;;;39.40;18.00;;;;;;5030413;28;20493;-45
2022/07/18 11:05:25;;;;;;;2.30;2.10;;;39.50;18.30;;;;;;5031013;28;20945;-46
2022/07/18 11:08:14;;;;;;;2.67;2.47;;;39.60;18.40;;;;;;5030657;28;20443;-46
2022/07/18 11:10:46;;;;;;;2.97;2.40;;;39.70;17.90;;;;;;5029869;28;20455;-46
2022/07/18 11:13:30;;;;;;;2.37;2.20;;;39.90;18.80;;;;;;5030069;28;20521;-45
2022/07/18 11:16:14;;;;;;;2.57;2.33;;;40.20;18.20;;;;;;5030719;28;20525;-45
2022/07/18 11:18:46;;;;;;;2.50;2.30;;;40.40;18.60;;;;;;5028020;28;20423;-47
2022/07/18 11:21:20;;;;;;;2.23;1.97;;;40.50;18.50;;;;;;5030365;28;20478;-48
2022/07/18 11:23:49;;;;;;;2.53;2.40;;;40.70;18.20;;;;;;5030126;28;20557;-45
2022/07/18 11:26:17;;;;;;;2.60;2.50;;;40.80;17.10;;;;;;5030729;28;20926;-45
2022/07/18 11:28:43;;;;;;;2.47;2.33;;;40.80;17.60;;;;;;5029529;28;20435;-46
2022/07/18 11:31:11;;;;;;;3.00;2.80;;;41.00;17.30;;;;;;5030484;28;20870;-45
2022/07/18 11:33:40;;;;;;;2.60;2.30;;;41.10;18.20;;;;;;5029984;28;20494;-44
2022/07/18 11:36:08;;;;;;;2.37;2.10;;;41.10;17.80;;;;;;5030345;28;21014;-47
2022/07/18 11:38:35;;;;;;;2.93;2.70;;;41.20;17.40;;;;;;5029550;28;20504;-45
2022/07/18 11:41:02;;;;;;;2.37;2.27;;;41.00;16.80;;;;;;5029992;28;20931;-45
2022/07/18 11:43:28;;;;;;;2.57;2.37;;;40.90;17.00;;;;;;5029747;28;20455;-45
2022/07/18 11:46:05;;;;;;;2.43;2.23;;;40.90;17.10;;;;;;5022446;28;20485;-44
2022/07/18 11:48:32;;;;;;;3.10;2.30;;;41.00;17.00;;;;;;5029511;28;20196;-46
2022/07/18 11:50:58;;;;;;;2.60;2.37;;;40.80;17.20;;;;;;5029862;28;20769;-45
2022/07/18 11:53:23;;;;;;;4.40;2.40;;;40.20;17.10;;;;;;5029555;28;20494;-45
2022/07/18 11:55:49;;;;;;;2.57;2.37;;;40.30;17.10;;;;;;5030367;28;20207;-45
2022/07/18 11:58:16;;;;;;;2.47;2.37;;;40.30;17.90;;;;;;5029459;28;20196;-44
2022/07/18 12:00:43;;;;;;;3.23;2.50;;;40.50;17.50;;;;;;5029802;28;20201;-45
2022/07/18 12:03:14;;;;;;;2.90;2.63;;;40.50;17.10;;;;;;5029802;28;20493;-45
2022/07/18 12:05:51;;;;;;;2.70;2.50;;;40.60;17.20;;;;;;5030292;28;20435;-45
2022/07/18 12:08:27;;;;;;;2.60;2.50;;;40.30;17.00;;;;;;5029568;28;20788;-45
2022/07/18 12:11:26;;;;;;;2.33;2.23;;;39.90;17.80;;;;;;5029876;28;20438;-45
2022/07/18 12:14:00;;;;;;;18.37;3.00;;;40.00;18.20;;;;;;5027210;28;20501;-44
2022/07/18 12:16:37;;;;;;;2.03;1.93;;;39.20;17.80;;;;;;5030107;28;20830;-45
2022/07/18 12:19:11;;;;;;;3.77;2.20;;;39.80;18.40;;;;;;5028819;28;20439;-45
2022/07/18 12:21:54;;;;;;;2.17;2.07;;;40.20;17.40;;;;;;5030070;28;20526;-49
2022/07/18 12:24:22;;;;;;;2.57;2.03;;;40.50;18.00;;;;;;5029289;28;20534;-48
2022/07/18 12:26:48;;;;;;;2.70;2.50;;;40.70;17.40;;;;;;5030187;28;20424;-49
2022/07/18 12:29:14;;;;;;;2.73;2.53;;;41.00;17.80;;;;;;5028667;28;20503;-45
2022/07/18 12:31:42;;;;;;;4.47;2.30;;;41.10;17.10;;;;;;5032271;28;20192;-49
2022/07/18 12:34:15;;;;;;;3.40;3.20;;;41.30;16.90;;;;;;5033344;28;20654;-48
2022/07/18 12:36:57;;;;;;;2.40;2.20;;;40.70;17.10;;;;;;5033586;28;20475;-49
2022/07/18 12:39:33;;;;;;;2.90;2.70;;;40.30;17.50;;;;;;5019524;28;20515;-49
2022/07/18 12:42:00;;;;;;;2.70;2.60;;;40.70;17.40;;;;;;5033426;28;21009;-49
2022/07/18 12:44:26;;;;;;;2.60;2.23;;;40.90;17.10;;;;;;5030004;28;20927;-46
2022/07/18 12:46:53;;;;;;;2.83;2.63;;;40.70;17.40;;;;;;5030529;28;20438;-47
2022/07/18 12:49:18;;;;;;;3.40;2.57;;;40.90;17.40;;;;;;5032460;28;20794;-48
2022/07/18 12:51:44;;;;;;;3.07;2.77;;;41.10;17.40;;;;;;5033328;28;20430;-49